Time;durP1;ratioP1;P1;durP2;ratioP2;P2;SDS_P1;SDS_P2;PMS_P1;PMS_P2;Temp;Humidity;BMP_temperature;BMP_pressure;BME280_temperature;BME280_humidity;BME280_pressure;Samples;Min_cycle;Max_cycle;Signal;HPM_P1;HPM_P2
2023/11/30 00:02:01;;;;;;;34.47;28.65;;;;;;;7.11;100.00;97316.78;5096847;28;20558;-46
2023/11/30 00:04:27;;;;;;;21.48;13.27;;;;;;;7.35;100.00;97324.84;5096945;28;20119;-46
2023/11/30 00:06:53;;;;;;;22.27;15.18;;;;;;;7.36;100.00;97319.41;5096854;28;20035;-46
2023/11/30 00:09:18;;;;;;;19.77;11.55;;;;;;;7.29;100.00;97308.22;5097004;28;20501;-46
2023/11/30 00:11:44;;;;;;;19.88;12.88;;;;;;;7.28;100.00;97293.56;5098115;28;20035;-46
2023/11/30 00:14:10;;;;;;;13.30;11.07;;;;;;;7.28;100.00;97290.16;5098205;28;20035;-46
2023/11/30 00:16:36;;;;;;;13.07;10.23;;;;;;;7.12;100.00;97281.06;5096835;28;20042;-46
2023/11/30 00:19:01;;;;;;;29.33;23.65;;;;;;;7.14;100.00;97268.59;5098109;28;20020;-46
2023/11/30 00:21:27;;;;;;;16.60;12.43;;;;;;;7.28;100.00;97261.47;5097935;28;20032;-46
2023/11/30 00:23:53;;;;;;;22.17;13.02;;;;;;;7.39;100.00;97266.00;5098130;28;20027;-46
2023/11/30 00:26:19;;;;;;;16.33;13.18;;;;;;;7.19;100.00;97274.00;5096733;28;20035;-46
2023/11/30 00:28:44;;;;;;;24.90;14.80;;;;;;;7.01;100.00;97269.50;5097734;28;20055;-46
2023/11/30 00:31:10;;;;;;;17.83;13.57;;;;;;;7.05;100.00;97269.88;5097974;28;20382;-46
2023/11/30 00:33:36;;;;;;;24.60;17.88;;;;;;;6.99;100.00;97263.72;5097939;28;20017;-46
2023/11/30 00:36:02;;;;;;;15.38;12.02;;;;;;;7.03;100.00;97256.25;5098149;28;20089;-46
2023/11/30 00:38:28;;;;;;;17.95;14.60;;;;;;;7.33;100.00;97253.81;5093774;28;20020;-46
2023/11/30 00:40:53;;;;;;;20.65;18.10;;;;;;;7.54;100.00;97252.59;5094644;28;20027;-46
2023/11/30 00:43:19;;;;;;;16.25;12.45;;;;;;;7.72;100.00;97249.19;5093422;28;20078;-46
2023/11/30 00:45:45;;;;;;;14.10;9.27;;;;;;;7.75;100.00;97243.56;5094592;28;20102;-46
2023/11/30 00:48:10;;;;;;;37.70;30.13;;;;;;;7.86;100.00;97231.56;5093266;28;20031;-46
2023/11/30 00:50:36;;;;;;;10.07;7.72;;;;;;;7.85;100.00;97233.38;5094528;28;20032;-46
2023/11/30 00:53:02;;;;;;;14.10;12.55;;;;;;;7.90;100.00;97232.72;5093210;28;20024;-46
2023/11/30 00:55:28;;;;;;;11.05;8.60;;;;;;;7.92;100.00;97231.47;5094646;28;20067;-47
2023/11/30 00:57:53;;;;;;;15.50;12.88;;;;;;;7.60;100.00;97220.41;5093084;28;20032;-46
2023/11/30 01:00:19;;;;;;;18.63;15.20;;;;;;;7.51;100.00;97232.16;5094282;28;20569;-46
2023/11/30 01:02:45;;;;;;;16.80;10.98;;;;;;;7.56;100.00;97233.06;5094252;28;20194;-46
2023/11/30 01:05:11;;;;;;;19.35;16.85;;;;;;;7.79;100.00;97224.63;5094306;28;20390;-46
2023/11/30 01:07:37;;;;;;;16.80;9.50;;;;;;;7.87;100.00;97223.53;5094136;28;20098;-46
2023/11/30 01:10:04;;;;;;;15.40;9.98;;;;;;;7.86;100.00;97210.69;5094039;28;20024;-46
2023/11/30 01:12:30;;;;;;;155.30;138.57;;;;;;;7.80;100.00;97218.34;5094082;28;20085;-46
2023/11/30 01:14:56;;;;;;;37.08;32.42;;;;;;;7.64;100.00;97226.78;5092816;28;20028;-46
2023/11/30 01:17:22;;;;;;;92.47;75.45;;;;;;;7.38;100.00;97214.78;5094024;28;20561;-46
2023/11/30 01:19:48;;;;;;;13.80;12.02;;;;;;;7.23;100.00;97204.72;5094026;28;20458;-46
2023/11/30 01:22:14;;;;;;;16.00;12.63;;;;;;;6.76;100.00;97207.72;5093818;28;20520;-45
2023/11/30 01:24:41;;;;;;;13.50;10.82;;;;;;;6.35;100.00;97192.53;5092591;28;20027;-45
2023/11/30 01:27:07;;;;;;;11.95;10.68;;;;;;;6.07;100.00;97188.50;5092529;28;20024;-45
2023/11/30 01:29:32;;;;;;;12.00;10.70;;;;;;;5.84;100.00;97201.19;5093512;28;20074;-45
2023/11/30 01:31:58;;;;;;;12.95;10.82;;;;;;;5.83;100.00;97183.97;5092430;28;20028;-45
2023/11/30 01:34:24;;;;;;;16.77;13.13;;;;;;;5.83;100.00;97182.16;5092404;28;20039;-45
2023/11/30 01:36:50;;;;;;;17.63;11.77;;;;;;;5.67;100.00;97177.44;5093666;28;20021;-46
2023/11/30 01:39:16;;;;;;;16.25;11.57;;;;;;;5.23;100.00;97179.72;5093666;28;20023;-45
2023/11/30 01:41:42;;;;;;;19.20;13.65;;;;;;;4.98;100.00;97169.19;5092096;28;20070;-45
2023/11/30 01:44:09;;;;;;;14.60;13.07;;;;;;;5.10;100.00;97164.97;5093544;28;20020;-45
2023/11/30 01:46:37;;;;;;;86.22;64.35;;;;;;;4.97;100.00;97165.78;5092058;28;20058;-45
2023/11/30 01:49:05;;;;;;;21.77;17.60;;;;;;;5.27;100.00;97146.31;5093300;28;20016;-46
2023/11/30 01:51:31;;;;;;;19.00;12.98;;;;;;;5.72;100.00;97141.19;5093413;28;20429;-45
2023/11/30 01:53:59;;;;;;;49.83;38.72;;;;;;;5.82;100.00;97145.94;5091967;28;20517;-45
2023/11/30 01:56:26;;;;;;;22.40;18.42;;;;;;;5.55;100.00;97136.44;5093216;28;20024;-45
2023/11/30 01:58:53;;;;;;;16.40;13.27;;;;;;;5.27;100.00;97133.31;5093225;28;20016;-46
2023/11/30 02:01:19;;;;;;;18.30;14.18;;;;;;;5.09;100.00;97123.56;5091751;28;20035;-45
2023/11/30 02:03:45;;;;;;;15.07;13.48;;;;;;;5.10;100.00;97122.56;5091936;28;20039;-45
2023/11/30 02:06:17;;;;;;;18.30;14.10;;;;;;;5.07;100.00;97123.78;5093319;28;20379;-46
2023/11/30 02:08:43;;;;;;;30.92;26.23;;;;;;;4.98;100.00;97117.19;5093044;28;20520;-46
2023/11/30 02:11:09;;;;;;;18.23;13.35;;;;;;;4.88;100.00;97111.63;5091693;28;20129;-45
2023/11/30 02:13:35;;;;;;;19.70;15.80;;;;;;;5.35;100.00;97117.50;5092841;28;20115;-46
2023/11/30 02:16:01;;;;;;;18.52;11.93;;;;;;;5.51;100.00;97108.41;5092875;28;20116;-45
2023/11/30 02:18:26;;;;;;;17.63;13.35;;;;;;;5.50;100.00;97102.44;5091549;28;20024;-45
2023/11/30 02:20:52;;;;;;;15.57;12.93;;;;;;;5.29;100.00;97106.13;5092712;28;20019;-45
2023/11/30 02:23:17;;;;;;;17.33;11.70;;;;;;;5.31;100.00;97091.09;5091418;28;20024;-45
2023/11/30 02:25:43;;;;;;;23.65;19.25;;;;;;;5.22;100.00;97084.53;5091389;28;20028;-46
2023/11/30 02:28:14;;;;;;;20.35;16.40;;;;;;;5.10;100.00;97083.56;5092452;28;20044;-45
2023/11/30 02:30:40;;;;;;;18.48;13.68;;;;;;;4.93;100.00;97076.22;5092681;28;20032;-45
2023/11/30 02:33:06;;;;;;;66.65;53.67;;;;;;;4.93;100.00;97071.03;5091209;28;20028;-46
2023/11/30 02:35:33;;;;;;;26.10;22.05;;;;;;;5.24;100.00;97077.31;5091179;28;20070;-46
2023/11/30 02:37:58;;;;;;;17.70;13.75;;;;;;;5.47;100.00;97060.41;5092518;28;20028;-46
2023/11/30 02:40:24;;;;;;;15.48;12.55;;;;;;;5.76;100.00;97072.09;5092398;28;20043;-46
2023/11/30 02:42:50;;;;;;;18.25;16.30;;;;;;;6.05;100.00;97062.09;5092329;28;20073;-46
2023/11/30 02:45:15;;;;;;;12.02;10.60;;;;;;;5.87;100.00;97071.41;5090998;28;20020;-46
2023/11/30 02:47:41;;;;;;;15.05;11.75;;;;;;;5.22;100.00;97074.13;5092300;28;20032;-46
2023/11/30 02:50:08;;;;;;;16.58;13.43;;;;;;;4.86;100.00;97062.44;5090979;28;20115;-46
2023/11/30 02:52:33;;;;;;;18.30;14.75;;;;;;;4.79;100.00;97053.88;5092279;28;20032;-46
2023/11/30 02:54:59;;;;;;;18.88;14.07;;;;;;;4.96;100.00;97065.41;5092156;28;20020;-46
2023/11/30 02:57:25;;;;;;;18.70;14.75;;;;;;;5.20;100.00;97065.72;5092377;28;20055;-46
2023/11/30 02:59:50;;;;;;;22.67;16.83;;;;;;;5.39;100.00;97071.84;5091646;28;20034;-46
2023/11/30 03:02:16;;;;;;;19.08;13.80;;;;;;;5.47;100.00;97074.22;5090718;28;20020;-46
2023/11/30 03:04:42;;;;;;;25.38;21.45;;;;;;;5.35;100.00;97071.47;5092139;28;20027;-46
2023/11/30 03:07:07;;;;;;;18.40;13.63;;;;;;;5.55;100.00;97070.56;5092002;28;20517;-46
2023/11/30 03:09:33;;;;;;;18.45;14.20;;;;;;;5.54;100.00;97067.19;5092026;28;20435;-46
2023/11/30 03:11:59;;;;;;;15.52;12.68;;;;;;;5.51;100.00;97053.78;5092010;28;20023;-46
2023/11/30 03:14:25;;;;;;;18.10;14.13;;;;;;;5.35;100.00;97040.28;5090910;28;20027;-46
2023/11/30 03:16:50;;;;;;;14.73;12.43;;;;;;;5.16;100.00;97035.94;5091945;28;20112;-46
2023/11/30 03:19:16;;;;;;;15.02;12.73;;;;;;;5.21;100.00;97028.31;5091920;28;20023;-46
2023/11/30 03:21:42;;;;;;;16.33;12.15;;;;;;;5.17;100.00;97035.75;5091775;28;20499;-46
2023/11/30 03:24:08;;;;;;;14.75;11.90;;;;;;;5.02;100.00;97024.78;5091844;28;20031;-47
2023/11/30 03:26:33;;;;;;;16.77;13.43;;;;;;;4.92;100.00;97016.63;5091910;28;20394;-47
2023/11/30 03:28:59;;;;;;;15.75;14.05;;;;;;;4.88;100.00;97007.66;5091458;28;20040;-47
2023/11/30 03:31:25;;;;;;;19.02;15.00;;;;;;;4.72;100.00;97004.47;5091744;28;20031;-47
2023/11/30 03:33:51;;;;;;;20.15;15.60;;;;;;;4.67;100.00;97008.69;5090472;28;20032;-46
2023/11/30 03:36:16;;;;;;;11.55;8.80;;;;;;;4.68;100.00;97005.91;5090421;28;20641;-47
2023/11/30 03:38:42;;;;;;;13.07;11.27;;;;;;;4.62;100.00;96993.72;5091805;28;20024;-46
2023/11/30 03:41:08;;;;;;;17.30;11.63;;;;;;;4.60;100.00;96996.50;5090311;28;20448;-47
2023/11/30 03:43:33;;;;;;;13.38;11.45;;;;;;;4.79;100.00;96996.69;5090353;28;20040;-47
2023/11/30 03:45:59;;;;;;;7.20;3.58;;;;;;;4.98;100.00;96992.41;5091692;28;20066;-47
2023/11/30 03:48:25;;;;;;;7.05;4.85;;;;;;;4.99;100.00;96978.41;5091628;28;20016;-46
2023/11/30 03:50:50;;;;;;;8.13;6.45;;;;;;;5.03;100.00;96973.59;5091629;28;20104;-46
2023/11/30 03:53:16;;;;;;;9.55;6.32;;;;;;;5.07;100.00;96967.78;5090272;28;20110;-46
2023/11/30 03:55:42;;;;;;;9.73;8.07;;;;;;;5.08;100.00;96964.16;5090233;28;20048;-46
2023/11/30 03:58:07;;;;;;;7.43;6.68;;;;;;;5.08;100.00;96955.56;5090316;28;20077;-46
2023/11/30 04:00:33;;;;;;;6.43;5.53;;;;;;;4.97;100.00;96955.22;5091781;28;20393;-45
2023/11/30 04:02:59;;;;;;;6.95;6.25;;;;;;;4.94;100.00;96958.22;5091469;28;20107;-45
2023/11/30 04:05:24;;;;;;;7.13;6.28;;;;;;;4.93;100.00;96954.03;5091504;28;20406;-46
2023/11/30 04:07:50;;;;;;;9.45;4.78;;;;;;;5.00;100.00;96962.59;5091496;28;20024;-46
2023/11/30 04:10:16;;;;;;;8.38;7.47;;;;;;;5.02;100.00;96959.78;5091451;28;20551;-45
2023/11/30 04:12:41;;;;;;;8.27;6.30;;;;;;;5.01;100.00;96950.41;5093007;28;20023;-45
2023/11/30 04:15:08;;;;;;;5.93;5.05;;;;;;;5.03;100.00;96952.78;5093976;28;20020;-45
2023/11/30 04:17:34;;;;;;;6.55;4.90;;;;;;;5.00;100.00;96956.59;5094018;28;20063;-45
2023/11/30 04:20:00;;;;;;;9.68;7.18;;;;;;;5.05;100.00;96949.00;5095250;28;20428;-45
2023/11/30 04:22:26;;;;;;;7.07;4.55;;;;;;;5.08;100.00;96950.38;5095011;28;20073;-46
2023/11/30 04:24:51;;;;;;;3.40;2.80;;;;;;;5.09;100.00;96955.38;5093876;28;20020;-46
2023/11/30 04:27:17;;;;;;;6.72;5.28;;;;;;;5.09;100.00;96952.78;5093673;28;20061;-45
2023/11/30 04:29:43;;;;;;;8.65;5.30;;;;;;;5.17;100.00;96954.31;5094774;28;20514;-46
2023/11/30 04:32:09;;;;;;;4.78;4.18;;;;;;;5.11;100.00;96950.75;5094948;28;20024;-46
2023/11/30 04:34:34;;;;;;;16.90;13.45;;;;;;;5.11;100.00;96942.97;5094877;28;20038;-45
2023/11/30 04:37:00;;;;;;;18.27;16.48;;;;;;;5.16;100.00;96937.13;5094824;28;20021;-45
2023/11/30 04:39:26;;;;;;;6.05;5.43;;;;;;;5.07;100.00;96930.56;5094815;28;20470;-45
2023/11/30 04:41:51;;;;;;;10.00;5.63;;;;;;;5.03;100.00;96932.00;5094615;28;20043;-45
2023/11/30 04:44:20;;;;;;;6.13;4.75;;;;;;;4.99;100.00;96927.22;5093345;28;20115;-45
2023/11/30 04:46:46;;;;;;;7.32;4.53;;;;;;;5.09;100.00;96921.56;5094981;28;20020;-45
2023/11/30 04:49:11;;;;;;;7.72;6.00;;;;;;;5.21;100.00;96903.47;5094599;28;20039;-45
2023/11/30 04:51:37;;;;;;;8.63;5.25;;;;;;;5.25;100.00;96903.84;5094541;28;20031;-45
2023/11/30 04:54:03;;;;;;;5.28;4.65;;;;;;;5.28;100.00;96880.84;5093515;28;20039;-45
2023/11/30 04:56:28;;;;;;;6.88;4.85;;;;;;;5.24;100.00;96876.28;5093156;28;20098;-46
2023/11/30 04:58:54;;;;;;;24.45;21.85;;;;;;;5.37;100.00;96889.97;5094646;28;20405;-45
2023/11/30 05:01:20;;;;;;;8.45;5.95;;;;;;;5.50;100.00;96894.28;5094307;28;20393;-46
2023/11/30 05:03:45;;;;;;;5.25;3.50;;;;;;;5.49;100.00;96884.09;5093028;28;20085;-45
2023/11/30 05:06:11;;;;;;;5.72;3.90;;;;;;;5.30;100.00;96889.22;5094279;28;20390;-45
2023/11/30 05:08:37;;;;;;;6.97;4.63;;;;;;;5.17;100.00;96887.53;5094258;28;20513;-45
2023/11/30 05:11:03;;;;;;;6.03;4.80;;;;;;;5.06;100.00;96877.00;5094119;28;20027;-45
2023/11/30 05:13:28;;;;;;;5.78;4.45;;;;;;;5.12;100.00;96868.34;5093152;28;20062;-45
2023/11/30 05:15:54;;;;;;;6.60;4.53;;;;;;;5.02;100.00;96876.59;5094055;28;20430;-45
2023/11/30 05:18:20;;;;;;;13.93;12.65;;;;;;;4.96;100.00;96867.84;5094043;28;20081;-46
2023/11/30 05:20:46;;;;;;;8.02;5.32;;;;;;;4.97;100.00;96866.03;5093931;28;20023;-45
2023/11/30 05:23:11;;;;;;;5.45;4.95;;;;;;;4.91;100.00;96867.69;5093361;28;20092;-45
2023/11/30 05:25:37;;;;;;;4.72;3.97;;;;;;;4.86;100.00;96859.69;5093888;28;20100;-45
2023/11/30 05:28:05;;;;;;;4.65;4.07;;;;;;;4.90;100.00;96862.69;5093654;28;20048;-45
2023/11/30 05:30:32;;;;;;;5.00;4.50;;;;;;;4.93;100.00;96870.03;5093753;28;20030;-45
2023/11/30 05:32:58;;;;;;;4.53;4.13;;;;;;;5.00;100.00;96871.59;5093743;28;20455;-46
2023/11/30 05:35:23;;;;;;;4.57;4.10;;;;;;;5.12;100.00;96871.75;5092441;28;20347;-46
2023/11/30 05:37:49;;;;;;;7.47;4.20;;;;;;;5.06;100.00;96861.38;5093672;28;20051;-45
2023/11/30 05:40:16;;;;;;;6.35;4.72;;;;;;;5.01;100.00;96856.81;5092216;28;20020;-45
2023/11/30 05:42:42;;;;;;;6.07;3.55;;;;;;;4.92;100.00;96861.47;5093433;28;20531;-45
2023/11/30 05:45:08;;;;;;;18.15;6.07;;;;;;;5.11;100.00;96864.13;5092441;28;20053;-45
2023/11/30 05:47:34;;;;;;;6.93;4.43;;;;;;;5.44;100.00;96868.31;5092400;28;20031;-45
2023/11/30 05:49:59;;;;;;;6.97;5.90;;;;;;;5.65;100.00;96865.31;5093439;28;20016;-46
2023/11/30 05:52:25;;;;;;;12.88;4.75;;;;;;;5.55;100.00;96850.22;5093365;28;20143;-46
2023/11/30 05:54:51;;;;;;;7.47;5.18;;;;;;;5.51;100.00;96858.66;5093299;28;20021;-45
2023/11/30 05:57:16;;;;;;;8.00;4.68;;;;;;;5.59;100.00;96877.41;5093280;28;20397;-46
2023/11/30 05:59:42;;;;;;;79.25;65.90;;;;;;;5.71;100.00;96882.69;5091983;28;20434;-46
2023/11/30 06:02:10;;;;;;;8.10;4.38;;;;;;;5.88;100.00;96892.59;5093051;28;20028;-46
2023/11/30 06:04:37;;;;;;;5.75;3.58;;;;;;;5.99;100.00;96877.06;5093167;28;20048;-46
2023/11/30 06:07:02;;;;;;;0.30;0.30;;;;;;;5.87;100.00;96877.97;5093117;28;20107;-45
2023/11/30 06:09:28;;;;;;;0.15;0.15;;;;;;;5.86;100.00;96866.75;5093065;28;20052;-45
2023/11/30 06:11:54;;;;;;;0.00;0.00;;;;;;;5.86;100.00;96871.97;5093026;28;20024;-46
2023/11/30 06:14:19;;;;;;;0.10;0.10;;;;;;;5.90;100.00;96864.53;5091692;28;20507;-46
2023/11/30 06:16:45;;;;;;;0.00;0.00;;;;;;;6.20;100.00;96875.84;5091625;28;20442;-46
2023/11/30 06:19:11;;;;;;;0.17;0.17;;;;;;;6.53;100.00;96866.84;5092894;28;20073;-46
2023/11/30 06:21:40;;;;;;;0.00;0.00;;;;;;;6.82;100.00;96853.25;5092764;28;20016;-46
2023/11/30 06:24:06;;;;;;;0.40;0.40;;;;;;;7.33;100.00;96849.31;5091781;28;20028;-46
2023/11/30 06:26:32;;;;;;;0.17;0.17;;;;;;;7.48;100.00;96848.88;5092734;28;20046;-46
2023/11/30 06:28:58;;;;;;;0.00;0.00;;;;;;;7.58;100.00;96838.69;5091187;28;20603;-46
2023/11/30 06:31:23;;;;;;;0.10;0.10;;;;;;;7.58;100.00;96842.06;5091296;28;20032;-46
2023/11/30 06:33:50;;;;;;;2.92;1.75;;;;;;;7.73;100.00;96839.03;5092637;28;20051;-46
2023/11/30 06:36:16;;;;;;;0.10;0.10;;;;;;;7.69;100.00;96830.06;5091709;28;20031;-46
2023/11/30 06:38:42;;;;;;;0.00;0.00;;;;;;;7.57;100.00;96831.88;5091255;28;20024;-46
2023/11/30 06:41:14;;;;;;;0.00;0.00;;;;;;;7.49;100.00;96829.59;5092671;28;20039;-46
2023/11/30 06:43:42;;;;;;;0.00;0.00;;;;;;;7.46;100.00;96822.22;5092506;28;20024;-46
2023/11/30 06:46:08;;;;;;;0.00;0.00;;;;;;;7.57;100.00;96813.59;5091086;28;20012;-46
2023/11/30 06:48:34;;;;;;;0.00;0.00;;;;;;;7.61;100.00;96812.13;5092733;28;20753;-46
2023/11/30 06:51:00;;;;;;;0.00;0.00;;;;;;;7.67;100.00;96808.59;5092403;28;20099;-46
2023/11/30 06:53:25;;;;;;;0.03;0.03;;;;;;;7.71;100.00;96796.69;5092211;28;20095;-46
2023/11/30 06:55:51;;;;;;;0.00;0.00;;;;;;;7.73;100.00;96786.81;5092310;28;20028;-46
2023/11/30 06:58:17;;;;;;;0.00;0.00;;;;;;;7.85;100.00;96776.34;5092514;28;20023;-46
2023/11/30 07:00:43;;;;;;;0.10;0.10;;;;;;;7.95;100.00;96770.53;5090863;28;20021;-46
2023/11/30 07:03:09;;;;;;;1.70;1.60;;;;;;;7.92;100.00;96777.00;5090773;28;20042;-47
2023/11/30 07:05:34;;;;;;;1.88;1.20;;;;;;;7.92;100.00;96792.66;5092139;28;20028;-47
2023/11/30 07:08:00;;;;;;;1.02;0.93;;;;;;;8.01;100.00;96785.28;5090808;28;20020;-46
2023/11/30 07:10:26;;;;;;;1.67;1.13;;;;;;;8.04;100.00;96753.47;5073976;28;20493;-46
2023/11/30 07:12:51;;;;;;;3.10;1.83;;;;;;;8.16;100.00;96756.84;5092080;28;20577;-46
2023/11/30 07:15:17;;;;;;;7.05;2.90;;;;;;;8.16;100.00;96738.53;5091981;28;20026;-46
2023/11/30 07:17:43;;;;;;;0.70;0.70;;;;;;;8.17;100.00;96762.88;5092039;28;20478;-46
2023/11/30 07:20:09;;;;;;;3.03;2.58;;;;;;;8.18;100.00;96767.84;5091905;28;20111;-46
2023/11/30 07:22:34;;;;;;;1.42;1.30;;;;;;;8.30;100.00;96756.56;5091877;28;20555;-46
2023/11/30 07:25:01;;;;;;;3.30;3.00;;;;;;;8.33;100.00;96774.38;5091911;28;20016;-46
2023/11/30 07:27:27;;;;;;;2.17;1.08;;;;;;;8.39;100.00;96769.03;5090578;28;20481;-46
2023/11/30 07:29:52;;;;;;;1.67;1.00;;;;;;;8.49;100.00;96758.00;5091706;28;20052;-46
2023/11/30 07:32:18;;;;;;;2.40;1.63;;;;;;;8.63;100.00;96768.16;5091785;28;20104;-46
2023/11/30 07:34:44;;;;;;;1.65;1.27;;;;;;;8.66;100.00;96758.03;5090544;28;20486;-46
2023/11/30 07:37:10;;;;;;;1.05;1.00;;;;;;;8.76;100.00;96767.88;5091821;28;20028;-46
2023/11/30 07:39:36;;;;;;;4.55;4.15;;;;;;;8.82;100.00;96782.63;5091775;28;20516;-46
2023/11/30 07:42:03;;;;;;;2.58;2.00;;;;;;;8.84;100.00;96775.34;5091543;28;20016;-46
2023/11/30 07:44:29;;;;;;;233.75;176.60;;;;;;;8.97;100.00;96777.66;5090530;28;20020;-46
2023/11/30 07:46:55;;;;;;;152.07;117.85;;;;;;;8.98;100.00;96784.47;5092367;28;20027;-46
2023/11/30 07:49:21;;;;;;;5.50;4.47;;;;;;;9.03;100.00;96786.38;5094451;28;20044;-46
2023/11/30 07:51:47;;;;;;;7.28;3.33;;;;;;;9.03;100.00;96775.13;5095758;28;20489;-46
2023/11/30 07:54:13;;;;;;;16.02;13.02;;;;;;;9.02;100.00;96763.88;5095719;28;20074;-46
2023/11/30 07:56:39;;;;;;;6.25;5.65;;;;;;;9.09;100.00;96719.22;5095642;28;20016;-46
2023/11/30 07:59:04;;;;;;;2.20;2.00;;;;;;;9.16;100.00;96751.25;5094531;28;20148;-46
2023/11/30 08:01:30;;;;;;;1.27;0.85;;;;;;;9.13;100.00;96751.72;5094170;28;20107;-46
2023/11/30 08:03:56;;;;;;;0.03;0.03;;;;;;;9.20;100.00;96739.28;5094235;28;20024;-46
2023/11/30 08:06:22;;;;;;;6.35;5.47;;;;;;;9.22;100.00;96733.81;5094098;28;20036;-46
2023/11/30 08:08:47;;;;;;;1.20;1.10;;;;;;;9.33;100.00;96720.59;5095735;28;20208;-46
2023/11/30 08:11:14;;;;;;;0.57;0.55;;;;;;;9.38;100.00;96702.38;5095343;28;20521;-46
2023/11/30 08:13:40;;;;;;;2.20;0.70;;;;;;;9.33;100.00;96714.59;5095281;28;20066;-46
2023/11/30 08:16:06;;;;;;;2.10;1.92;;;;;;;9.33;100.00;96714.59;5094257;28;20122;-47
2023/11/30 08:18:32;;;;;;;1.45;1.35;;;;;;;9.38;100.00;96733.78;5095240;28;20505;-47
2023/11/30 08:21:00;;;;;;;8.05;5.68;;;;;;;9.37;100.00;96694.75;5095185;28;20044;-47
2023/11/30 08:23:26;;;;;;;1.50;1.10;;;;;;;9.33;100.00;96714.59;5095022;28;20042;-47
2023/11/30 08:25:53;;;;;;;1.52;1.42;;;;;;;9.34;100.00;96722.19;5093780;28;20028;-47
2023/11/30 08:28:23;;;;;;;1.30;0.93;;;;;;;9.33;100.00;96722.44;5094816;28;20548;-47
2023/11/30 08:30:48;;;;;;;5.97;1.48;;;;;;;9.40;100.00;96726.47;5094969;28;20020;-47
2023/11/30 08:33:14;;;;;;;1.33;1.23;;;;;;;9.50;100.00;96762.47;5094992;28;20035;-47
2023/11/30 08:35:40;;;;;;;1.90;1.10;;;;;;;9.48;100.00;96755.91;5094895;28;20035;-47
2023/11/30 08:38:05;;;;;;;1.58;1.30;;;;;;;9.50;100.00;96738.13;5094850;28;20020;-47
2023/11/30 08:40:31;;;;;;;1.13;1.02;;;;;;;9.63;100.00;96747.47;5094934;28;20020;-47
2023/11/30 08:42:57;;;;;;;1.35;1.02;;;;;;;9.73;100.00;96761.47;5093466;28;20021;-47
2023/11/30 08:45:23;;;;;;;2.20;1.33;;;;;;;9.86;100.00;96765.59;5094741;28;20030;-47
2023/11/30 08:47:49;;;;;;;3.60;3.30;;;;;;;9.85;100.00;96763.19;5094738;28;20436;-47
2023/11/30 08:50:16;;;;;;;1.02;0.73;;;;;;;9.78;100.00;96758.94;5093325;28;20059;-47
2023/11/30 08:52:41;;;;;;;6.28;1.67;;;;;;;9.84;100.00;96767.66;5093318;28;20024;-48
2023/11/30 08:55:07;;;;;;;2.95;1.27;;;;;;;9.90;100.00;96750.97;5094564;28;20489;-48
2023/11/30 08:57:33;;;;;;;0.80;0.77;;;;;;;9.92;100.00;96782.13;5093822;28;20026;-48
2023/11/30 08:59:58;;;;;;;8.40;5.25;;;;;;;9.99;100.00;96767.03;5092896;28;20471;-48
2023/11/30 09:02:25;;;;;;;3.92;3.50;;;;;;;10.07;100.00;96753.50;5094333;28;20454;-48
2023/11/30 09:04:54;;;;;;;1.70;1.33;;;;;;;10.10;100.00;96763.53;5094412;28;20394;-48
2023/11/30 09:07:20;;;;;;;1.23;0.80;;;;;;;10.14;100.00;96734.97;5093017;28;20016;-48
2023/11/30 09:09:46;;;;;;;7.28;1.40;;;;;;;10.23;100.00;96783.31;5093299;28;20034;-49
2023/11/30 09:12:12;;;;;;;3.65;1.10;;;;;;;10.33;100.00;96765.09;5092938;28;20111;-49
2023/11/30 09:14:37;;;;;;;2.50;2.30;;;;;;;10.46;100.00;96769.16;5094271;28;20016;-49
2023/11/30 09:17:05;;;;;;;0.95;0.90;;;;;;;10.51;100.00;96800.69;5094122;28;20077;-49
2023/11/30 09:19:31;;;;;;;4.32;2.28;;;;;;;10.55;100.00;96807.03;5092844;28;20020;-48
2023/11/30 09:21:57;;;;;;;4.25;1.77;;;;;;;10.68;100.00;96794.56;5093925;28;20020;-49
2023/11/30 09:24:23;;;;;;;22.60;20.30;;;;;;;10.74;100.00;96811.94;5092704;28;20088;-49
2023/11/30 09:26:53;;;;;;;7.57;6.05;;;;;;;10.74;100.00;96823.22;5093969;28;20498;-49
2023/11/30 09:29:19;;;;;;;11.82;9.05;;;;;;;10.87;100.00;96816.81;5093641;28;20078;-49
2023/11/30 09:31:48;;;;;;;3.15;2.85;;;;;;;10.91;100.00;96827.59;5093806;28;20056;-49
2023/11/30 09:34:13;;;;;;;5.07;3.95;;;;;;;10.90;100.00;96826.78;5092460;28;20021;-49
2023/11/30 09:36:40;;;;;;;2.38;1.65;;;;;;;11.06;100.00;96832.19;5093661;28;20027;-49
2023/11/30 09:39:09;;;;;;;8.32;7.57;;;;;;;11.08;100.00;96825.66;5093679;28;20020;-49
2023/11/30 09:41:38;;;;;;;7.18;6.45;;;;;;;11.05;100.00;96817.50;5092210;28;20581;-49
2023/11/30 09:44:05;;;;;;;5.10;3.20;;;;;;;10.99;100.00;96821.91;5093562;28;20028;-49
2023/11/30 09:46:32;;;;;;;5.18;3.85;;;;;;;11.06;100.00;96840.84;5093541;28;20016;-49
2023/11/30 09:48:59;;;;;;;2.22;1.27;;;;;;;11.19;100.00;96840.47;5092137;28;20458;-49
2023/11/30 09:51:28;;;;;;;6.18;1.98;;;;;;;11.25;100.00;96846.53;5093386;28;20027;-49
2023/11/30 09:53:55;;;;;;;1.15;0.98;;;;;;;11.30;100.00;96848.41;5092171;28;20378;-49
2023/11/30 09:56:21;;;;;;;0.95;0.88;;;;;;;11.46;100.00;96846.72;5092004;28;20024;-49
2023/11/30 09:58:47;;;;;;;1.50;1.38;;;;;;;11.53;100.00;96857.78;5075232;28;20039;-49
2023/11/30 10:01:13;;;;;;;10.55;7.75;;;;;;;11.51;100.00;96858.06;5093076;28;20043;-49
2023/11/30 10:03:39;;;;;;;1.90;1.30;;;;;;;11.60;100.00;96859.16;5093244;28;20020;-49
2023/11/30 10:06:05;;;;;;;1.38;1.00;;;;;;;11.74;100.00;96854.25;5093144;28;20024;-49
2023/11/30 10:08:31;;;;;;;1.08;1.00;;;;;;;11.72;100.00;96869.50;5093331;28;20031;-49
2023/11/30 10:10:56;;;;;;;2.78;2.05;;;;;;;11.72;100.00;96863.44;5091714;28;20398;-49
2023/11/30 10:13:22;;;;;;;2.00;1.23;;;;;;;11.74;100.00;96859.53;5091667;28;20020;-49
2023/11/30 10:15:47;;;;;;;2.28;1.40;;;;;;;11.75;100.00;96861.13;5091653;28;20123;-49
2023/11/30 10:18:13;;;;;;;3.20;1.20;;;;;;;11.93;100.00;96859.13;5091626;28;20379;-48
2023/11/30 10:20:39;;;;;;;2.15;1.60;;;;;;;12.03;100.00;96867.09;5091572;28;20035;-47
2023/11/30 10:23:12;;;;;;;1.80;1.52;;;;;;;12.03;100.00;96853.94;5092791;28;20047;-47
2023/11/30 10:25:40;;;;;;;1.83;1.40;;;;;;;12.06;100.00;96861.31;5093034;28;20032;-47
2023/11/30 10:28:14;;;;;;;5.55;3.00;;;;;;;12.12;100.00;96852.41;5092439;28;20052;-48
2023/11/30 10:30:44;;;;;;;4.88;4.38;;;;;;;12.06;100.00;96853.44;5092800;28;20061;-47
2023/11/30 10:33:14;;;;;;;2.65;1.90;;;;;;;11.88;100.00;96857.25;5092700;28;20505;-47
2023/11/30 10:35:44;;;;;;;4.70;4.30;;;;;;;11.71;100.00;96865.28;5092692;28;20020;-47
2023/11/30 10:38:32;;;;;;;2.22;1.23;;;;;;;11.58;100.00;96858.63;5092686;28;20032;-47
2023/11/30 10:41:08;;;;;;;6.22;5.22;;;;;;;11.44;100.00;96867.97;5092872;28;20397;-46
2023/11/30 10:43:37;;;;;;;3.15;2.15;;;;;;;11.40;100.00;96861.63;5092500;28;20027;-46
2023/11/30 10:46:07;;;;;;;4.03;2.65;;;;;;;11.38;100.00;96854.00;5092327;28;20027;-46
2023/11/30 10:48:34;;;;;;;4.65;3.50;;;;;;;11.39;100.00;96845.09;5092381;28;20497;-45
2023/11/30 10:51:01;;;;;;;6.28;5.63;;;;;;;11.35;100.00;96858.97;5092272;28;20028;-45
2023/11/30 10:53:45;;;;;;;3.92;3.53;;;;;;;11.34;100.00;96852.13;5091047;28;20035;-45
2023/11/30 10:56:13;;;;;;;3.03;2.55;;;;;;;11.37;100.00;96839.28;5092282;28;20026;-45
2023/11/30 10:58:39;;;;;;;4.55;2.55;;;;;;;11.40;100.00;96835.38;5092234;28;20020;-45
2023/11/30 11:01:08;;;;;;;9.48;8.57;;;;;;;11.47;100.00;96835.13;5092199;28;20390;-45
2023/11/30 11:03:34;;;;;;;19.42;17.42;;;;;;;11.44;100.00;96833.81;5092109;28;20172;-45
2023/11/30 11:06:03;;;;;;;7.57;3.65;;;;;;;11.49;100.00;96838.31;5092151;28;20103;-45
2023/11/30 11:08:29;;;;;;;4.90;3.22;;;;;;;11.56;100.00;96849.41;5092417;28;20026;-46
2023/11/30 11:11:05;;;;;;;10.27;9.10;;;;;;;11.60;100.00;96832.88;5090696;28;20024;-46
2023/11/30 11:13:34;;;;;;;2.95;2.50;;;;;;;11.61;100.00;96841.56;5092120;28;20073;-46
2023/11/30 11:16:02;;;;;;;2.90;2.60;;;;;;;11.69;100.00;96832.41;5092016;28;20140;-46
2023/11/30 11:18:32;;;;;;;3.95;2.53;;;;;;;11.74;100.00;96830.59;5092256;28;20024;-46
2023/11/30 11:20:59;;;;;;;12.95;11.65;;;;;;;11.75;100.00;96840.09;5091398;28;20028;-46
2023/11/30 11:23:38;;;;;;;5.70;3.72;;;;;;;11.86;100.00;96830.44;5090571;28;20184;-46